createdAt,value
2023-01-13T00:01:12.199Z,21.73
2023-01-13T00:03:40.203Z,13.23
2023-01-13T00:06:12.402Z,11.73
2023-01-13T00:08:38.944Z,16.65
2023-01-13T00:11:05.610Z,15.57
2023-01-13T00:13:35.543Z,18.65
2023-01-13T00:16:07.717Z,16.10
2023-01-13T00:18:36.914Z,16.40
2023-01-13T00:21:09.928Z,25.73
2023-01-13T00:23:36.542Z,16.52
2023-01-13T00:26:10.418Z,19.40
2023-01-13T00:28:38.133Z,19.85
2023-01-13T00:31:19.244Z,15.77
2023-01-13T00:33:46.369Z,14.98
2023-01-13T00:36:14.751Z,10.70
2023-01-13T00:38:43.041Z,13.30
2023-01-13T00:41:15.875Z,21.38
2023-01-13T00:43:42.959Z,16.33
2023-01-13T00:46:11.379Z,18.10
2023-01-13T00:48:38.495Z,27.05
2023-01-13T00:51:08.350Z,24.88
2023-01-13T00:53:37.774Z,23.63
2023-01-13T00:56:07.972Z,9.23
2023-01-13T00:58:35.774Z,19.17
2023-01-13T01:01:11.443Z,16.58
2023-01-13T01:03:38.405Z,13.57
2023-01-13T01:06:12.464Z,19.42
2023-01-13T01:08:39.277Z,12.33
2023-01-13T01:11:11.814Z,21.77
2023-01-13T01:13:38.703Z,24.00
2023-01-13T01:16:10.906Z,14.60
2023-01-13T01:18:40.390Z,14.13
2023-01-13T01:21:08.021Z,13.63
2023-01-13T01:23:35.975Z,19.27
2023-01-13T01:26:07.973Z,17.98
2023-01-13T01:28:35.032Z,17.20
2023-01-13T01:31:07.108Z,13.73
2023-01-13T01:33:33.923Z,16.50
2023-01-13T01:36:01.654Z,17.88
2023-01-13T01:38:28.215Z,24.90
2023-01-13T01:40:54.889Z,12.40
2023-01-13T01:43:41.506Z,15.85
2023-01-13T01:46:10.944Z,13.90
2023-01-13T01:48:42.211Z,18.90
2023-01-13T01:51:12.007Z,19.90
2023-01-13T01:53:41.769Z,21.52
2023-01-13T01:56:09.783Z,17.50
2023-01-13T01:58:45.577Z,21.20
2023-01-13T02:01:14.262Z,26.70
2023-01-13T02:03:45.823Z,21.52
2023-01-13T02:06:13.940Z,22.65
2023-01-13T02:08:41.422Z,24.40
2023-01-13T02:11:30.828Z,15.87
2023-01-13T02:13:57.308Z,16.25
2023-01-13T02:16:24.807Z,9.57
2023-01-13T02:19:49.478Z,15.32
2023-01-13T02:22:31.887Z,19.95
2023-01-13T02:25:07.365Z,18.00
2023-01-13T02:27:52.712Z,22.50
2023-01-13T02:30:51.378Z,30.25
2023-01-13T02:33:24.777Z,15.23
2023-01-13T02:36:09.824Z,23.05
2023-01-13T02:39:12.498Z,15.43
2023-01-13T02:42:05.650Z,19.05
2023-01-13T02:44:57.036Z,15.38
2023-01-13T02:47:30.324Z,19.02
2023-01-13T02:50:02.009Z,17.27
2023-01-13T02:52:33.891Z,18.80
2023-01-13T02:55:08.924Z,21.48
2023-01-13T02:57:39.889Z,25.55
2023-01-13T03:00:07.656Z,12.45
2023-01-13T03:02:34.346Z,24.67
2023-01-13T03:05:01.111Z,20.27
2023-01-13T03:07:44.631Z,11.30
2023-01-13T03:10:33.564Z,18.83
2023-01-13T03:13:05.933Z,13.02
2023-01-13T03:15:54.245Z,11.32
2023-01-13T03:18:36.218Z,16.93
2023-01-13T03:21:24.489Z,25.15
2023-01-13T03:24:02.463Z,24.83
2023-01-13T03:26:35.026Z,18.35
2023-01-13T03:29:19.354Z,23.50
2023-01-13T03:32:23.327Z,18.90
2023-01-13T03:34:59.938Z,21.30
2023-01-13T03:37:33.024Z,17.70
2023-01-13T03:40:03.919Z,20.13
2023-01-13T03:42:34.038Z,15.88
2023-01-13T03:45:17.514Z,21.00
2023-01-13T03:47:48.893Z,19.30
2023-01-13T03:50:43.303Z,17.38
2023-01-13T03:53:19.617Z,13.98
2023-01-13T03:55:50.804Z,16.33
2023-01-13T03:58:32.909Z,13.30
2023-01-13T04:01:07.867Z,18.33
2023-01-13T04:03:43.892Z,17.95
2023-01-13T04:06:40.757Z,12.43
2023-01-13T04:09:36.785Z,12.00
2023-01-13T04:12:51.922Z,10.80
2023-01-13T04:15:24.983Z,11.77
2023-01-13T04:17:52.087Z,15.55
2023-01-13T04:20:18.742Z,10.20
2023-01-13T04:22:45.210Z,14.10
2023-01-13T04:25:12.239Z,9.90
2023-01-13T04:27:38.714Z,13.73
2023-01-13T04:30:06.765Z,7.20
2023-01-13T04:32:33.246Z,5.30
2023-01-13T04:34:59.688Z,9.65
2023-01-13T04:37:26.165Z,9.13
2023-01-13T04:39:52.610Z,14.70
2023-01-13T04:42:19.101Z,11.18
2023-01-13T04:44:45.647Z,6.13
2023-01-13T04:47:12.476Z,14.75
2023-01-13T04:49:38.926Z,11.77
2023-01-13T04:52:07.244Z,8.93
2023-01-13T04:54:33.889Z,8.32
2023-01-13T04:57:00.371Z,10.05
2023-01-13T04:59:26.926Z,6.93
2023-01-13T05:01:53.534Z,8.63
2023-01-13T05:04:20.013Z,6.32
2023-01-13T05:06:46.474Z,6.57
2023-01-13T05:09:13.453Z,7.13
2023-01-13T05:11:58.591Z,7.18
2023-01-13T05:14:43.442Z,4.63
2023-01-13T05:17:13.245Z,6.93
2023-01-13T05:19:40.771Z,3.97
2023-01-13T05:22:25.744Z,6.78
2023-01-13T05:25:10.522Z,6.90
2023-01-13T05:27:37.103Z,8.93
2023-01-13T05:30:04.526Z,3.95
2023-01-13T05:32:31.088Z,4.63
2023-01-13T05:34:57.751Z,4.28
2023-01-13T05:37:28.866Z,7.82
2023-01-13T05:40:13.897Z,7.20
2023-01-13T05:42:59.310Z,10.30
2023-01-13T05:45:26.069Z,11.18
2023-01-13T05:47:52.560Z,4.30
2023-01-13T05:50:19.095Z,13.30
2023-01-13T05:52:45.775Z,8.67
2023-01-13T05:55:12.399Z,5.38
2023-01-13T05:57:39.485Z,23.92
2023-01-13T06:00:06.442Z,9.68
2023-01-13T06:02:33.055Z,11.65
2023-01-13T06:05:01.852Z,11.23
2023-01-13T06:07:28.255Z,11.68
2023-01-13T06:09:54.812Z,8.52
2023-01-13T06:12:21.385Z,12.52
2023-01-13T06:14:48.807Z,8.95
2023-01-13T06:17:16.634Z,5.90
2023-01-13T06:19:43.088Z,8.07
2023-01-13T06:22:17.898Z,9.10
2023-01-13T06:24:49.654Z,14.18
2023-01-13T06:27:17.744Z,8.55
2023-01-13T06:29:44.164Z,14.80
2023-01-13T06:32:21.711Z,12.80
2023-01-13T06:34:54.325Z,18.60
2023-01-13T06:37:25.370Z,7.32
2023-01-13T06:39:58.132Z,15.50
2023-01-13T06:42:48.234Z,12.77
2023-01-13T06:45:14.717Z,10.88
2023-01-13T06:47:41.828Z,11.15
2023-01-13T06:50:08.976Z,14.45
2023-01-13T06:52:35.491Z,9.73
2023-01-13T06:55:02.941Z,11.53
2023-01-13T06:57:29.371Z,10.52
2023-01-13T06:59:56.895Z,8.80
2023-01-13T07:02:23.502Z,12.68
2023-01-13T07:04:50.133Z,11.52
2023-01-13T07:07:16.623Z,10.00
2023-01-13T07:09:43.081Z,6.72
2023-01-13T07:12:09.535Z,14.95
2023-01-13T07:14:54.878Z,16.98
2023-01-13T07:17:25.519Z,10.95
2023-01-13T07:19:52.655Z,15.93
2023-01-13T07:22:19.520Z,13.52
2023-01-13T07:24:46.031Z,10.73
2023-01-13T07:27:12.567Z,11.40
2023-01-13T07:29:39.720Z,5.97
2023-01-13T07:32:07.748Z,7.23
2023-01-13T07:34:34.301Z,15.77
2023-01-13T07:37:01.330Z,13.15
2023-01-13T07:39:27.974Z,9.73
2023-01-13T07:42:13.032Z,12.98
2023-01-13T07:44:39.491Z,21.83
2023-01-13T07:47:06.210Z,7.95
2023-01-13T07:49:33.198Z,12.80
2023-01-13T07:52:00.643Z,10.25
2023-01-13T07:54:39.611Z,10.25
2023-01-13T07:57:06.999Z,13.47
2023-01-13T07:59:33.664Z,9.15
2023-01-13T08:02:00.326Z,14.07
2023-01-13T08:04:27.054Z,17.58
2023-01-13T08:06:53.502Z,18.23
2023-01-13T08:09:21.046Z,14.90
2023-01-13T08:12:07.455Z,15.75
2023-01-13T08:14:34.006Z,5.47
2023-01-13T08:17:00.457Z,8.50
2023-01-13T08:19:26.977Z,14.40
2023-01-13T08:21:53.671Z,12.07
2023-01-13T08:24:20.065Z,9.02
2023-01-13T08:26:46.908Z,10.38
2023-01-13T08:29:15.169Z,6.32
2023-01-13T08:31:42.017Z,11.05
2023-01-13T08:34:08.781Z,8.67
2023-01-13T08:36:35.548Z,15.02
2023-01-13T08:39:05.213Z,9.32
2023-01-13T08:41:53.672Z,16.83
2023-01-13T08:44:20.525Z,13.70
2023-01-13T08:46:52.409Z,9.97
2023-01-13T08:49:21.253Z,12.43
2023-01-13T08:51:47.985Z,9.55
2023-01-13T08:54:24.239Z,12.05
2023-01-13T08:56:54.872Z,20.27
2023-01-13T08:59:23.593Z,10.03
2023-01-13T09:01:50.710Z,14.40
2023-01-13T09:04:20.759Z,14.27
2023-01-13T09:06:50.126Z,12.60
2023-01-13T09:09:16.888Z,11.27
2023-01-13T09:12:14.711Z,13.67
2023-01-13T09:14:53.243Z,11.73
2023-01-13T09:17:20.139Z,11.15
2023-01-13T09:19:53.333Z,13.98
2023-01-13T09:22:21.112Z,8.45
2023-01-13T09:24:52.343Z,11.20
2023-01-13T09:27:20.879Z,13.95
2023-01-13T09:29:50.254Z,12.15
2023-01-13T09:32:19.722Z,11.73
2023-01-13T09:35:01.520Z,7.80
2023-01-13T09:37:34.313Z,19.53
2023-01-13T09:40:04.399Z,7.80
2023-01-13T09:43:13.784Z,10.32
2023-01-13T09:45:53.314Z,10.77
2023-01-13T09:48:30.385Z,20.58
2023-01-13T09:50:59.926Z,9.27
2023-01-13T09:53:30.644Z,11.00
2023-01-13T09:55:57.301Z,7.65
2023-01-13T09:58:25.971Z,14.23
2023-01-13T10:01:14.263Z,13.20
2023-01-13T10:03:41.076Z,5.63
2023-01-13T10:06:21.742Z,23.98
2023-01-13T10:08:49.538Z,8.98
2023-01-13T10:11:40.379Z,11.48
2023-01-13T10:14:18.142Z,13.60
2023-01-13T10:16:51.355Z,12.53
2023-01-13T10:19:33.163Z,11.43
2023-01-13T10:22:39.196Z,14.23
2023-01-13T10:25:28.884Z,10.00
2023-01-13T10:28:04.301Z,10.45
2023-01-13T10:30:44.422Z,19.20
2023-01-13T10:37:06.435Z,13.25
2023-01-13T10:39:46.651Z,11.95
2023-01-13T10:46:48.804Z,17.10
2023-01-13T10:50:28.737Z,12.60
2023-01-13T10:53:02.090Z,15.80
2023-01-13T10:55:40.694Z,8.73
2023-01-13T10:58:23.450Z,9.52
2023-01-13T11:01:10.452Z,14.90
2023-01-13T11:03:41.707Z,18.77
2023-01-13T11:06:09.392Z,10.23
2023-01-13T11:08:45.271Z,9.70
2023-01-13T11:11:43.692Z,12.10
2023-01-13T11:14:44.411Z,15.40
2023-01-13T11:17:29.643Z,12.55
2023-01-13T11:20:12.168Z,9.45
2023-01-13T11:22:48.068Z,10.68
2023-01-13T11:25:24.164Z,9.38
2023-01-13T11:28:04.497Z,8.63
2023-01-13T11:31:46.763Z,6.80
2023-01-13T11:34:10.441Z,7.57
2023-01-13T11:36:58.604Z,8.38
2023-01-13T11:39:43.904Z,8.95
2023-01-13T11:43:02.760Z,12.70
2023-01-13T11:45:46.694Z,7.68
2023-01-13T11:48:19.720Z,8.98
2023-01-13T11:51:16.212Z,6.65
2023-01-13T11:53:57.862Z,9.35
2023-01-13T11:56:36.969Z,7.10
2023-01-13T11:59:31.933Z,15.60
2023-01-13T12:02:10.195Z,4.18
2023-01-13T12:04:47.143Z,7.90
2023-01-13T12:07:35.108Z,11.30
2023-01-13T12:10:19.833Z,8.80
2023-01-13T12:13:19.032Z,3.47
2023-01-13T12:16:13.614Z,8.20
2023-01-13T12:18:51.395Z,8.13
2023-01-13T12:21:21.831Z,7.47
2023-01-13T12:24:25.361Z,12.13
2023-01-13T12:27:01.573Z,9.43
2023-01-13T12:29:33.458Z,6.57
2023-01-13T12:32:03.732Z,9.82
2023-01-13T12:34:48.987Z,7.50
2023-01-13T12:37:26.350Z,7.17
2023-01-13T12:39:58.826Z,10.00
2023-01-13T12:42:58.622Z,6.70
2023-01-13T12:45:27.034Z,10.70
2023-01-13T12:47:54.209Z,9.38
2023-01-13T12:50:26.479Z,6.80
2023-01-13T12:53:01.501Z,8.38
2023-01-13T12:55:33.310Z,8.32
2023-01-13T12:58:05.873Z,7.70
2023-01-13T13:00:41.389Z,6.20
2023-01-13T13:03:10.673Z,14.13
2023-01-13T13:05:47.776Z,16.05
2023-01-13T13:08:37.740Z,6.28
2023-01-13T13:11:31.925Z,8.73
2023-01-13T13:14:11.908Z,6.50
2023-01-13T13:16:45.911Z,4.73
2023-01-13T13:19:18.588Z,6.88
2023-01-13T13:22:16.792Z,7.13
2023-01-13T13:25:03.395Z,8.50
2023-01-13T13:27:41.767Z,7.35
2023-01-13T13:30:17.047Z,5.93
2023-01-13T13:33:21.282Z,11.50
2023-01-13T13:35:53.957Z,9.95
2023-01-13T13:39:08.695Z,6.75
2023-01-13T13:41:55.726Z,6.65
2023-01-13T13:44:59.372Z,6.83
2023-01-13T13:47:26.039Z,6.20
2023-01-13T13:49:54.735Z,7.22
2023-01-13T13:52:21.261Z,7.43
2023-01-13T13:54:51.852Z,6.25
2023-01-13T13:57:22.579Z,1.73
2023-01-13T13:59:58.471Z,6.30
2023-01-13T14:02:32.178Z,5.15
2023-01-13T14:05:25.343Z,9.43
2023-01-13T14:07:59.340Z,5.35
2023-01-13T14:10:46.544Z,4.20
2023-01-13T14:13:30.041Z,10.07
2023-01-13T14:15:59.483Z,8.23
2023-01-13T14:18:28.014Z,8.70
2023-01-13T14:21:19.338Z,6.07
2023-01-13T14:24:01.952Z,8.90
2023-01-13T14:26:32.094Z,9.00
2023-01-13T14:29:01.384Z,14.02
2023-01-13T14:31:28.775Z,5.25
2023-01-13T14:33:58.524Z,5.72
2023-01-13T14:36:38.708Z,6.53
2023-01-13T14:39:05.537Z,6.85
2023-01-13T14:41:48.173Z,10.73
2023-01-13T14:44:25.089Z,10.18
2023-01-13T14:46:55.055Z,3.47
2023-01-13T14:49:30.347Z,7.73
2023-01-13T14:52:24.581Z,8.50
2023-01-13T14:55:23.421Z,5.95
2023-01-13T14:57:50.162Z,5.47
2023-01-13T15:00:16.787Z,7.55
2023-01-13T15:02:54.043Z,8.37
2023-01-13T15:05:20.616Z,8.30
2023-01-13T15:07:59.679Z,8.90
2023-01-13T15:10:46.484Z,5.78
2023-01-13T15:13:39.383Z,9.68
2023-01-13T15:16:22.030Z,10.70
2023-01-13T15:18:48.549Z,3.50
2023-01-13T15:21:18.472Z,9.18
2023-01-13T15:23:47.230Z,4.72
2023-01-13T15:26:25.776Z,6.72
2023-01-13T15:28:54.275Z,5.37
2023-01-13T15:31:22.417Z,6.10
2023-01-13T15:33:49.054Z,3.83
2023-01-13T15:36:23.574Z,8.60
2023-01-13T15:38:50.746Z,8.18
2023-01-13T15:41:17.425Z,2.77
2023-01-13T15:44:02.673Z,10.85
2023-01-13T15:46:41.172Z,8.95
2023-01-13T15:49:28.007Z,12.13
2023-01-13T15:51:54.676Z,8.25
2023-01-13T15:54:24.551Z,7.97
2023-01-13T15:56:51.977Z,12.80
2023-01-13T15:59:22.249Z,9.27
2023-01-13T16:01:48.740Z,7.50
2023-01-13T16:04:15.289Z,8.85
2023-01-13T16:06:41.777Z,8.33
2023-01-13T16:09:11.049Z,8.30
2023-01-13T16:11:37.671Z,9.02
2023-01-13T16:14:04.092Z,4.03
2023-01-13T16:16:30.862Z,6.78
2023-01-13T16:18:57.408Z,11.07
2023-01-13T16:21:24.218Z,11.32
2023-01-13T16:23:51.850Z,10.50
2023-01-13T16:26:24.431Z,9.05
2023-01-13T16:28:53.118Z,4.55
2023-01-13T16:31:25.082Z,4.57
2023-01-13T16:33:51.723Z,5.40
2023-01-13T16:36:20.196Z,8.30
2023-01-13T16:38:48.169Z,5.90
2023-01-13T16:41:14.883Z,9.70
2023-01-13T16:43:41.468Z,8.90
2023-01-13T16:46:18.851Z,8.98
2023-01-13T16:48:45.952Z,8.77
2023-01-13T16:51:12.407Z,8.35
2023-01-13T16:53:38.849Z,5.43
2023-01-13T16:56:16.679Z,8.03
2023-01-13T16:58:43.053Z,11.02
2023-01-13T17:01:24.825Z,2.88
2023-01-13T17:03:51.984Z,6.57
2023-01-13T17:06:22.076Z,4.25
2023-01-13T17:08:48.553Z,6.87
2023-01-13T17:11:15.041Z,5.07
2023-01-13T17:13:42.575Z,8.25
2023-01-13T17:16:19.251Z,6.13
2023-01-13T17:18:47.197Z,7.55
2023-01-13T17:21:15.347Z,6.77
2023-01-13T17:23:41.744Z,3.08
2023-01-13T17:26:21.579Z,2.80
2023-01-13T17:28:47.937Z,4.85
2023-01-13T17:31:14.326Z,4.05
2023-01-13T17:33:40.763Z,5.43
2023-01-13T17:36:07.322Z,5.18
2023-01-13T17:38:33.733Z,2.53
2023-01-13T17:41:04.237Z,5.47
2023-01-13T17:43:31.703Z,1.15
2023-01-13T17:45:58.824Z,2.43
2023-01-13T17:48:25.972Z,4.68
2023-01-13T17:50:53.306Z,1.05
2023-01-13T17:53:20.311Z,1.15
2023-01-13T17:55:51.635Z,3.38
2023-01-13T17:58:18.416Z,2.30
2023-01-13T18:00:44.944Z,3.00
2023-01-13T18:03:11.766Z,1.20
2023-01-13T18:05:39.139Z,1.85
2023-01-13T18:08:05.839Z,2.58
2023-01-13T18:10:33.486Z,6.47
2023-01-13T18:13:00.233Z,2.03
2023-01-13T18:15:26.690Z,2.67
2023-01-13T18:17:53.104Z,3.63
2023-01-13T18:20:38.050Z,4.32
2023-01-13T18:23:23.375Z,5.13
2023-01-13T18:26:08.345Z,2.65
2023-01-13T18:28:34.709Z,4.03
2023-01-13T18:31:01.109Z,3.42
2023-01-13T18:33:27.512Z,3.92
2023-01-13T18:35:53.963Z,4.17
2023-01-13T18:38:24.208Z,3.50
2023-01-13T18:40:50.647Z,8.90
2023-01-13T18:43:17.076Z,2.03
2023-01-13T18:45:43.539Z,3.88
2023-01-13T18:48:10.427Z,9.17
2023-01-13T18:50:36.866Z,8.52
2023-01-13T18:53:03.420Z,6.55
2023-01-13T18:55:29.964Z,2.85
2023-01-13T18:57:57.057Z,4.38
2023-01-13T19:00:24.653Z,1.40
2023-01-13T19:05:35.606Z,3.30
2023-01-13T19:08:02.636Z,7.03
2023-01-13T19:10:32.082Z,5.13
2023-01-13T19:12:58.514Z,1.90
2023-01-13T19:15:24.900Z,5.82
2023-01-13T19:17:52.544Z,6.95
2023-01-13T19:20:20.071Z,11.88
2023-01-13T19:22:53.668Z,4.82
2023-01-13T19:25:20.071Z,5.23
2023-01-13T19:27:46.530Z,4.30
2023-01-13T19:30:13.596Z,8.98
2023-01-13T19:32:40.161Z,7.05
2023-01-13T19:35:07.242Z,5.38
2023-01-13T19:37:36.611Z,4.90
2023-01-13T19:40:09.065Z,5.97
2023-01-13T19:42:54.167Z,5.18
2023-01-13T19:45:26.462Z,11.65
2023-01-13T19:47:52.943Z,6.70
2023-01-13T19:50:19.569Z,10.97
2023-01-13T19:52:45.943Z,8.40
2023-01-13T19:55:12.679Z,8.73
2023-01-13T19:57:40.108Z,3.72
2023-01-13T20:00:08.334Z,5.82
2023-01-13T20:02:36.594Z,5.33
2023-01-13T20:05:05.809Z,7.88
2023-01-13T20:07:33.606Z,6.68
2023-01-13T20:10:01.497Z,9.98
2023-01-13T20:12:29.071Z,3.50
2023-01-13T20:14:55.776Z,5.10
2023-01-13T20:17:22.929Z,7.95
2023-01-13T20:19:49.415Z,4.55
2023-01-13T20:22:15.860Z,5.63
2023-01-13T20:24:42.778Z,2.88
2023-01-13T20:27:09.631Z,7.20
2023-01-13T20:29:36.000Z,5.93
2023-01-13T20:32:02.716Z,3.63
2023-01-13T20:34:29.739Z,2.83
2023-01-13T20:36:56.449Z,6.30
2023-01-13T20:39:26.230Z,5.33
2023-01-13T20:42:11.375Z,3.85
2023-01-13T20:44:37.743Z,2.85
2023-01-13T20:47:04.548Z,4.07
2023-01-13T20:49:31.182Z,4.75
2023-01-13T20:51:58.942Z,4.63
2023-01-13T20:54:25.919Z,2.72
2023-01-13T20:56:53.286Z,4.00
2023-01-13T20:59:19.879Z,6.20
2023-01-13T21:01:46.529Z,3.42
2023-01-13T21:04:12.904Z,3.23
2023-01-13T21:06:39.315Z,5.82
2023-01-13T21:09:05.715Z,8.93
2023-01-13T21:11:50.871Z,4.15
2023-01-13T21:14:39.767Z,6.20
2023-01-13T21:17:07.429Z,3.27
2023-01-13T21:19:33.920Z,6.53
2023-01-13T21:22:00.277Z,7.13
2023-01-13T21:24:26.949Z,9.18
2023-01-13T21:26:56.942Z,2.88
2023-01-13T21:29:23.350Z,9.03
2023-01-13T21:31:49.885Z,4.68
2023-01-13T21:34:17.691Z,10.73
2023-01-13T21:36:44.094Z,9.50
2023-01-13T21:39:11.046Z,7.75
2023-01-13T21:41:55.739Z,11.50
2023-01-13T21:44:40.660Z,9.88
2023-01-13T21:47:36.208Z,6.90
2023-01-13T21:50:04.608Z,4.68
2023-01-13T21:52:31.005Z,4.63
2023-01-13T21:55:16.126Z,8.60
2023-01-13T21:57:49.941Z,8.88
2023-01-13T22:00:19.253Z,6.45
2023-01-13T22:02:46.536Z,10.77
2023-01-13T22:05:15.352Z,11.20
2023-01-13T22:07:41.827Z,9.77
2023-01-13T22:10:12.490Z,8.15
2023-01-13T22:12:39.374Z,6.85
2023-01-13T22:15:07.195Z,3.45
2023-01-13T22:17:34.092Z,9.45
2023-01-13T22:20:01.302Z,12.70
2023-01-13T22:22:29.070Z,6.97
2023-01-13T22:24:55.638Z,13.45
2023-01-13T22:27:24.777Z,12.75
2023-01-13T22:29:52.643Z,6.20
2023-01-13T22:32:20.338Z,8.50
2023-01-13T22:34:47.775Z,5.03
2023-01-13T22:37:14.309Z,9.82
2023-01-13T22:39:40.865Z,10.63
2023-01-13T22:42:07.516Z,8.90
2023-01-13T22:44:34.019Z,5.37
2023-01-13T22:47:00.527Z,3.17
2023-01-13T22:49:27.022Z,4.38
2023-01-13T22:51:53.403Z,9.02
2023-01-13T22:54:19.994Z,8.18
2023-01-13T22:56:46.388Z,6.83
2023-01-13T22:59:14.411Z,5.47
2023-01-13T23:01:42.051Z,7.20
2023-01-13T23:04:12.843Z,4.20
2023-01-13T23:06:39.867Z,7.57
2023-01-13T23:09:06.839Z,3.87
2023-01-13T23:11:33.865Z,15.00
2023-01-13T23:14:05.590Z,9.30
2023-01-13T23:16:35.535Z,8.82
2023-01-13T23:19:02.529Z,8.13
2023-01-13T23:21:32.013Z,8.03
2023-01-13T23:24:00.272Z,6.68
2023-01-13T23:26:27.475Z,8.80
2023-01-13T23:28:58.168Z,9.45
2023-01-13T23:31:24.544Z,4.72
2023-01-13T23:33:50.919Z,3.47
2023-01-13T23:36:21.558Z,8.73
2023-01-13T23:38:48.374Z,9.75
2023-01-13T23:41:24.619Z,9.27
2023-01-13T23:44:00.212Z,8.02
2023-01-13T23:46:29.218Z,7.93
2023-01-13T23:48:56.735Z,10.73
2023-01-13T23:51:23.481Z,12.27
2023-01-13T23:53:52.007Z,11.88
2023-01-13T23:56:21.174Z,7.97
2023-01-13T23:58:48.748Z,5.13
